Terminal Aerodrome Forecast
Issued by NWS

Home | Current Version | Previous Version | Text Only | Print | Product List | Glossary On
Versions: 1 2 3 4 5 6 7 8 9 10 11 12 13 14 15
779
FTUS44 KBMX 300520
TAFANB
TAF
KANB 300520Z 3006/0106 09005KT P6SM BKN250
     FM300800 10005KT P6SM FEW070 BKN250 WS020/17041KT
     FM301200 15010KT P6SM OVC015
     FM301700 16012G22KT P6SM BKN040 PROB30 3020/3024 4SM -TSRA
      BKN035CB=

USA.gov is the U.S. government's official web portal to all federal, state and local government web resources and services.